createdAt,value
2023-05-06T00:00:27.620Z,100192.14
2023-05-06T00:02:55.733Z,100193.59
2023-05-06T00:05:22.727Z,100199.23
2023-05-06T00:07:49.947Z,100200.77
2023-05-06T00:10:17.249Z,100200.98
2023-05-06T00:12:44.457Z,100200.11
2023-05-06T00:15:11.769Z,100207.09
2023-05-06T00:17:39.222Z,100206.73
2023-05-06T00:20:07.156Z,100203.99
2023-05-06T00:22:34.264Z,100208.50
2023-05-06T00:25:01.215Z,100210.59
2023-05-06T00:27:28.132Z,100216.94
2023-05-06T00:29:55.124Z,100217.86
2023-05-06T00:32:21.964Z,100217.08
2023-05-06T00:34:48.903Z,100215.29
2023-05-06T00:37:16.130Z,100220.33
2023-05-06T00:39:43.081Z,100218.41
2023-05-06T00:42:10.065Z,100223.02
2023-05-06T00:44:36.996Z,100226.27
2023-05-06T00:47:04.046Z,100227.29
2023-05-06T00:49:31.224Z,100231.02
2023-05-06T00:51:58.472Z,100236.46
2023-05-06T00:54:28.687Z,100245.13
2023-05-06T00:56:55.862Z,100246.27
2023-05-06T00:59:25.010Z,100250.00
2023-05-06T01:01:54.057Z,100254.23
2023-05-06T01:04:22.728Z,100253.33
2023-05-06T01:07:03.187Z,100252.21
2023-05-06T01:09:43.062Z,100252.82
2023-05-06T01:12:17.721Z,100247.41
2023-05-06T01:14:47.556Z,100243.55
2023-05-06T01:17:18.602Z,100241.52
2023-05-06T01:19:53.551Z,100239.06
2023-05-06T01:22:20.840Z,100244.45
2023-05-06T01:24:48.049Z,100246.40
2023-05-06T01:27:16.912Z,100248.02
2023-05-06T01:29:45.488Z,100248.35
2023-05-06T01:32:31.392Z,100250.42
2023-05-06T01:35:10.668Z,100252.39
2023-05-06T01:37:43.999Z,100258.77
2023-05-06T01:40:10.963Z,100264.88
2023-05-06T01:42:37.980Z,100263.25
2023-05-06T01:45:05.502Z,100260.30
2023-05-06T01:47:32.939Z,100266.04
2023-05-06T01:49:59.924Z,100270.62
2023-05-06T01:52:26.924Z,100270.81
2023-05-06T01:54:56.409Z,100273.60
2023-05-06T01:57:24.574Z,100275.81
2023-05-06T01:59:51.627Z,100279.69
2023-05-06T02:02:18.581Z,100283.10
2023-05-06T02:04:46.052Z,100280.64
2023-05-06T02:07:13.287Z,100286.23
2023-05-06T02:09:40.875Z,100287.69
2023-05-06T02:12:07.810Z,100289.38
2023-05-06T02:14:34.919Z,100290.71
2023-05-06T02:17:05.866Z,100292.55
2023-05-06T02:19:32.951Z,100292.32
2023-05-06T02:21:59.942Z,100289.71
2023-05-06T02:24:27.013Z,100292.23
2023-05-06T02:26:54.107Z,100292.62
2023-05-06T02:29:21.246Z,100301.37
2023-05-06T02:31:48.319Z,100303.52
2023-05-06T02:34:16.434Z,100307.41
2023-05-06T02:36:43.577Z,100305.59
2023-05-06T02:39:10.531Z,100311.30
2023-05-06T02:41:37.584Z,100311.26
2023-05-06T02:44:04.782Z,100311.22
2023-05-06T02:46:32.550Z,100315.52
2023-05-06T02:49:00.696Z,100312.29
2023-05-06T02:51:28.300Z,100317.69
2023-05-06T02:53:55.672Z,100317.23
2023-05-06T02:56:22.647Z,100315.61
2023-05-06T02:58:49.791Z,100317.08
2023-05-06T03:01:16.871Z,100325.60
2023-05-06T03:03:43.871Z,100327.67
2023-05-06T03:06:10.864Z,100334.88
2023-05-06T03:08:38.104Z,100335.78
2023-05-06T03:11:08.013Z,100332.16
2023-05-06T03:13:35.808Z,100331.98
2023-05-06T03:16:02.884Z,100333.14
2023-05-06T03:18:30.301Z,100339.87
2023-05-06T03:20:57.519Z,100337.86
2023-05-06T03:23:24.852Z,100337.79
2023-05-06T03:25:51.949Z,100344.40
2023-05-06T03:28:19.167Z,100353.52
2023-05-06T03:30:46.903Z,100364.06
2023-05-06T03:33:14.148Z,100369.40
2023-05-06T03:35:41.731Z,100373.60
2023-05-06T03:38:08.794Z,100379.31
2023-05-06T03:40:47.109Z,100385.80
2023-05-06T03:43:14.480Z,100389.24
2023-05-06T03:45:43.171Z,100387.55
2023-05-06T03:48:10.559Z,100385.38
2023-05-06T03:50:41.035Z,100383.69
2023-05-06T03:53:08.232Z,100380.17
2023-05-06T03:55:38.998Z,100382.70
2023-05-06T03:58:06.273Z,100384.14
2023-05-06T04:00:33.364Z,100391.08
2023-05-06T04:03:00.615Z,100390.50
2023-05-06T04:05:33.125Z,100394.21
2023-05-06T04:08:00.985Z,100389.10
2023-05-06T04:10:28.066Z,100378.63
2023-05-06T04:12:58.978Z,100379.46
2023-05-06T04:15:32.288Z,100388.27
2023-05-06T04:18:00.393Z,100396.67
2023-05-06T04:20:28.489Z,100397.33
2023-05-06T04:22:58.710Z,100399.43
2023-05-06T04:25:26.203Z,100396.59
2023-05-06T04:27:53.400Z,100396.52
2023-05-06T04:30:21.407Z,100402.48
2023-05-06T04:32:48.981Z,100402.21
2023-05-06T04:35:16.489Z,100402.15
2023-05-06T04:37:43.675Z,100407.91
2023-05-06T04:40:18.140Z,100414.25
2023-05-06T04:42:45.829Z,100422.97
2023-05-06T04:45:18.160Z,100420.73
2023-05-06T04:47:47.606Z,100425.84
2023-05-06T04:50:14.612Z,100426.54
2023-05-06T04:52:41.694Z,100419.15
2023-05-06T04:55:09.190Z,100418.83
2023-05-06T04:57:37.540Z,100416.02
2023-05-06T05:00:05.727Z,100414.68
2023-05-06T05:02:33.076Z,100414.36
2023-05-06T05:05:00.392Z,100408.01
2023-05-06T05:07:28.066Z,100408.99
2023-05-06T05:09:55.076Z,100408.65
2023-05-06T05:12:22.241Z,100411.14
2023-05-06T05:14:50.486Z,100416.24
2023-05-06T05:17:17.485Z,100416.00
2023-05-06T05:19:45.223Z,100417.14
2023-05-06T05:22:12.607Z,100415.68
2023-05-06T05:24:39.671Z,100414.58
2023-05-06T05:27:07.597Z,100420.75
2023-05-06T05:29:35.740Z,100418.09
2023-05-06T05:32:03.488Z,100416.11
2023-05-06T05:34:30.568Z,100419.66
2023-05-06T05:36:58.292Z,100416.86
2023-05-06T05:39:25.821Z,100413.58
2023-05-06T05:41:52.888Z,100412.77
2023-05-06T05:44:20.126Z,100411.95
2023-05-06T05:46:47.440Z,100411.64
2023-05-06T05:49:16.309Z,100415.11
2023-05-06T05:51:46.099Z,100416.58
2023-05-06T05:54:15.102Z,100418.59
2023-05-06T05:56:42.337Z,100416.12
2023-05-06T05:59:09.225Z,100422.39
2023-05-06T06:01:36.061Z,100424.75
2023-05-06T06:04:03.888Z,100427.23
2023-05-06T06:06:31.657Z,100427.21
2023-05-06T06:08:58.975Z,100432.38
2023-05-06T06:11:27.786Z,100433.04
2023-05-06T06:13:54.978Z,100436.36
2023-05-06T06:16:22.199Z,100435.36
2023-05-06T06:18:49.135Z,100429.14
2023-05-06T06:21:16.193Z,100429.63
2023-05-06T06:23:43.081Z,100435.55
2023-05-06T06:26:12.173Z,100436.82
2023-05-06T06:28:44.828Z,100438.02
2023-05-06T06:31:12.179Z,100436.11
2023-05-06T06:33:39.234Z,100435.34
2023-05-06T06:36:06.692Z,100437.47
2023-05-06T06:38:33.703Z,100436.39
2023-05-06T06:41:00.697Z,100440.25
2023-05-06T06:43:27.790Z,100438.55
2023-05-06T06:46:00.960Z,100439.10
2023-05-06T06:48:27.942Z,100445.56
2023-05-06T06:50:54.895Z,100452.30
2023-05-06T06:53:22.104Z,100447.61
2023-05-06T06:55:49.227Z,100448.30
2023-05-06T06:58:16.205Z,100449.05
2023-05-06T07:00:43.231Z,100446.11
2023-05-06T07:03:10.303Z,100451.65
2023-05-06T07:05:37.215Z,100451.39
2023-05-06T07:08:04.164Z,100449.49
2023-05-06T07:10:31.154Z,100456.13
2023-05-06T07:12:58.532Z,100456.13
2023-05-06T07:15:25.856Z,100457.13
2023-05-06T07:17:52.796Z,100457.38
2023-05-06T07:20:19.738Z,100451.19
2023-05-06T07:22:49.981Z,100454.48
2023-05-06T07:25:16.968Z,100458.31
2023-05-06T07:27:43.895Z,100450.19
2023-05-06T07:30:11.286Z,100445.36
2023-05-06T07:32:38.332Z,100439.74
2023-05-06T07:35:05.974Z,100449.48
2023-05-06T07:37:33.249Z,100444.48
2023-05-06T07:40:00.394Z,100455.27
2023-05-06T07:42:27.598Z,100455.38
2023-05-06T07:44:54.564Z,100448.01
2023-05-06T07:47:29.700Z,100448.38
2023-05-06T07:49:57.023Z,100448.50
2023-05-06T07:52:24.184Z,100448.55
2023-05-06T07:54:51.196Z,100449.19
2023-05-06T07:57:18.166Z,100446.64
2023-05-06T07:59:47.685Z,100446.85
2023-05-06T08:02:15.412Z,100455.15
2023-05-06T08:04:43.118Z,100452.27
2023-05-06T08:07:10.816Z,100447.25
2023-05-06T08:09:37.948Z,100456.05
2023-05-06T08:12:05.656Z,100460.23
2023-05-06T08:14:32.591Z,100466.97
2023-05-06T08:16:59.922Z,100466.13
2023-05-06T08:19:27.025Z,100458.92
2023-05-06T08:21:54.873Z,100460.35
2023-05-06T08:24:21.770Z,100455.39
2023-05-06T08:26:48.846Z,100462.39
2023-05-06T08:29:15.981Z,100456.39
2023-05-06T08:31:43.358Z,100453.16
2023-05-06T08:34:10.492Z,100446.14
2023-05-06T08:36:37.531Z,100448.42
2023-05-06T08:39:04.659Z,100448.77
2023-05-06T08:41:34.088Z,100449.46
2023-05-06T08:44:01.280Z,100454.98
2023-05-06T08:46:30.998Z,100458.98
2023-05-06T08:49:01.042Z,100447.59
2023-05-06T08:51:29.618Z,100453.34
2023-05-06T08:53:56.567Z,100454.73
2023-05-06T08:56:24.697Z,100458.02
2023-05-06T08:58:52.085Z,100460.63
2023-05-06T09:01:19.105Z,100464.61
2023-05-06T09:03:47.253Z,100466.86
2023-05-06T09:06:14.220Z,100466.00
2023-05-06T09:08:41.114Z,100461.16
2023-05-06T09:11:24.936Z,100458.39
2023-05-06T09:13:52.097Z,100470.70
2023-05-06T09:16:29.583Z,100465.33
2023-05-06T09:18:57.027Z,100466.36
2023-05-06T09:21:32.104Z,100469.48
2023-05-06T09:23:59.209Z,100463.58
2023-05-06T09:26:27.853Z,100461.84
2023-05-06T09:28:55.140Z,100461.16
2023-05-06T09:31:22.125Z,100466.36
2023-05-06T09:33:49.302Z,100462.73
2023-05-06T09:36:16.599Z,100453.70
2023-05-06T09:38:46.065Z,100458.89
2023-05-06T09:41:13.276Z,100466.52
2023-05-06T09:43:44.858Z,100457.85
2023-05-06T09:46:12.797Z,100454.19
2023-05-06T09:48:39.916Z,100449.85
2023-05-06T09:51:09.785Z,100444.29
2023-05-06T09:53:39.598Z,100442.01
2023-05-06T09:56:07.659Z,100442.33
2023-05-06T09:58:35.441Z,100439.05
2023-05-06T10:01:06.403Z,100446.86
2023-05-06T10:03:33.673Z,100443.07
2023-05-06T10:06:02.291Z,100444.29
2023-05-06T10:08:29.622Z,100445.66
2023-05-06T10:10:57.260Z,100442.05
2023-05-06T10:13:24.993Z,100450.04
2023-05-06T10:15:51.990Z,100445.91
2023-05-06T10:18:21.016Z,100441.94
2023-05-06T10:20:48.768Z,100435.69
2023-05-06T10:23:48.346Z,100443.15
2023-05-06T10:26:15.514Z,100445.92
2023-05-06T10:28:43.015Z,100441.06
2023-05-06T10:31:12.550Z,100449.04
2023-05-06T10:33:46.378Z,100447.30
2023-05-06T10:36:20.668Z,100448.52
2023-05-06T10:38:56.511Z,100451.79
2023-05-06T10:41:27.135Z,100454.57
2023-05-06T10:43:57.213Z,100452.14
2023-05-06T10:46:26.425Z,100458.90
2023-05-06T10:49:06.326Z,100454.55
2023-05-06T10:51:36.503Z,100456.83
2023-05-06T10:54:10.009Z,100457.00
2023-05-06T10:56:41.112Z,100446.09
2023-05-06T11:02:12.862Z,100453.70
2023-05-06T11:04:40.061Z,100453.02
2023-05-06T11:07:14.333Z,100444.67
2023-05-06T11:10:01.231Z,100444.13
2023-05-06T11:12:51.287Z,100440.87
2023-05-06T11:15:26.752Z,100442.27
2023-05-06T11:17:55.787Z,100439.33
2023-05-06T11:20:26.267Z,100440.36
2023-05-06T11:22:53.392Z,100441.55
2023-05-06T11:25:39.311Z,100435.98
2023-05-06T11:28:10.959Z,100431.64
2023-05-06T11:30:42.831Z,100429.02
2023-05-06T11:33:15.615Z,100426.60
2023-05-06T11:35:42.560Z,100427.27
2023-05-06T11:38:09.688Z,100424.84
2023-05-06T11:40:36.649Z,100423.96
2023-05-06T11:43:16.704Z,100419.10
2023-05-06T11:45:50.745Z,100418.60
2023-05-06T11:48:18.238Z,100417.06
2023-05-06T11:50:47.597Z,100414.66
2023-05-06T11:53:16.637Z,100415.16
2023-05-06T11:55:44.752Z,100416.71
2023-05-06T11:58:30.536Z,100410.64
2023-05-06T12:00:59.648Z,100407.84
2023-05-06T12:03:27.907Z,100406.09
2023-05-06T12:05:58.022Z,100407.48
2023-05-06T12:08:30.972Z,100408.35
2023-05-06T12:11:02.419Z,100410.45
2023-05-06T12:13:29.636Z,100410.81
2023-05-06T12:15:58.531Z,100408.89
2023-05-06T12:18:25.727Z,100400.55
2023-05-06T12:20:56.536Z,100397.25
2023-05-06T12:23:23.760Z,100401.59
2023-05-06T12:26:06.830Z,100403.20
2023-05-06T12:28:40.580Z,100401.64
2023-05-06T12:31:23.465Z,100395.60
2023-05-06T12:33:50.803Z,100405.63
2023-05-06T12:36:38.796Z,100399.58
2023-05-06T12:39:06.241Z,100397.33
2023-05-06T12:41:42.897Z,100401.83
2023-05-06T12:44:38.780Z,100399.58
2023-05-06T12:47:36.239Z,100394.22
2023-05-06T12:50:03.538Z,100389.19
2023-05-06T12:52:30.815Z,100389.87
2023-05-06T12:54:58.065Z,100387.60
2023-05-06T12:57:25.096Z,100384.50
2023-05-06T12:59:52.646Z,100388.64
2023-05-06T13:02:22.435Z,100387.77
2023-05-06T13:04:49.903Z,100390.51
2023-05-06T13:07:26.338Z,100384.94
2023-05-06T13:09:53.781Z,100380.23
2023-05-06T13:12:21.120Z,100386.09
2023-05-06T13:14:53.751Z,100380.55
2023-05-06T13:17:25.906Z,100376.06
2023-05-06T13:19:58.640Z,100373.45
2023-05-06T13:22:25.800Z,100374.66
2023-05-06T13:24:52.862Z,100372.05
2023-05-06T13:27:20.012Z,100376.02
2023-05-06T13:29:47.030Z,100380.52
2023-05-06T13:32:14.292Z,100386.39
2023-05-06T13:34:41.264Z,100387.73
2023-05-06T13:37:08.445Z,100383.73
2023-05-06T13:39:35.955Z,100375.80
2023-05-06T13:42:03.492Z,100374.44
2023-05-06T13:44:31.508Z,100379.66
2023-05-06T13:46:58.683Z,100380.65
2023-05-06T13:49:26.170Z,100383.40
2023-05-06T13:51:53.779Z,100384.06
2023-05-06T13:54:21.007Z,100384.96
2023-05-06T13:56:48.132Z,100383.76
2023-05-06T13:59:15.058Z,100380.11
2023-05-06T14:01:42.577Z,100383.91
2023-05-06T14:04:09.557Z,100377.50
2023-05-06T14:06:36.646Z,100379.94
2023-05-06T14:09:06.625Z,100383.77
2023-05-06T14:11:36.823Z,100387.77
2023-05-06T14:14:03.841Z,100388.65
2023-05-06T14:16:30.879Z,100385.68
2023-05-06T14:18:57.861Z,100384.96
2023-05-06T14:21:25.290Z,100382.86
2023-05-06T14:23:52.259Z,100380.94
2023-05-06T14:26:19.328Z,100381.60
2023-05-06T14:28:46.108Z,100382.66
2023-05-06T14:31:13.116Z,100384.05
2023-05-06T14:33:40.157Z,100377.97
2023-05-06T14:36:07.458Z,100379.47
2023-05-06T14:38:34.395Z,100375.46
2023-05-06T14:41:01.631Z,100368.53
2023-05-06T14:43:28.640Z,100359.73
2023-05-06T14:45:55.756Z,100353.66
2023-05-06T14:48:22.793Z,100351.40
2023-05-06T14:50:49.850Z,100349.28
2023-05-06T14:53:16.837Z,100348.08
2023-05-06T14:55:45.384Z,100348.05
2023-05-06T14:58:12.516Z,100352.70
2023-05-06T15:00:39.510Z,100360.45
2023-05-06T15:03:06.737Z,100357.30
2023-05-06T15:05:41.811Z,100357.59
2023-05-06T15:08:10.307Z,100355.30
2023-05-06T15:10:37.489Z,100354.27
2023-05-06T15:13:05.307Z,100358.73
2023-05-06T15:15:35.643Z,100361.30
2023-05-06T15:18:03.121Z,100364.23
2023-05-06T15:20:40.470Z,100369.59
2023-05-06T15:23:07.836Z,100363.55
2023-05-06T15:25:36.492Z,100363.36
2023-05-06T15:28:08.853Z,100365.23
2023-05-06T15:30:38.078Z,100369.48
2023-05-06T15:33:05.199Z,100375.45
2023-05-06T15:35:32.412Z,100378.00
2023-05-06T15:37:59.753Z,100377.78
2023-05-06T15:40:26.930Z,100383.43
2023-05-06T15:42:57.380Z,100388.38
2023-05-06T15:45:24.661Z,100385.23
2023-05-06T15:47:52.147Z,100383.96
2023-05-06T15:50:31.952Z,100379.97
2023-05-06T15:53:01.577Z,100382.85
2023-05-06T15:55:28.959Z,100384.38
2023-05-06T15:57:57.436Z,100384.16
2023-05-06T16:00:28.156Z,100384.08
2023-05-06T16:02:55.636Z,100388.67
2023-05-06T16:05:25.669Z,100389.60
2023-05-06T16:07:54.709Z,100386.98
2023-05-06T16:10:21.785Z,100387.13
2023-05-06T16:12:48.759Z,100387.45
2023-05-06T16:15:17.135Z,100386.40
2023-05-06T16:17:47.320Z,100381.73
2023-05-06T16:20:15.053Z,100380.84
2023-05-06T16:22:42.123Z,100380.27
2023-05-06T16:25:09.536Z,100377.62
2023-05-06T16:27:36.875Z,100374.27
2023-05-06T16:30:04.441Z,100377.85
2023-05-06T16:32:34.832Z,100379.89
2023-05-06T16:35:02.062Z,100382.59
2023-05-06T16:37:30.567Z,100378.56
2023-05-06T16:40:01.930Z,100382.11
2023-05-06T16:42:32.037Z,100382.40
2023-05-06T16:45:12.680Z,100381.10
2023-05-06T16:47:45.931Z,100384.48
2023-05-06T16:50:21.680Z,100386.63
2023-05-06T16:52:54.376Z,100387.23
2023-05-06T16:55:27.430Z,100389.41
2023-05-06T16:58:00.842Z,100385.89
2023-05-06T17:00:39.245Z,100385.45
2023-05-06T17:03:12.010Z,100386.01
2023-05-06T17:05:47.011Z,100386.58
2023-05-06T17:08:18.799Z,100391.30
2023-05-06T17:10:49.727Z,100394.12
2023-05-06T17:13:24.432Z,100392.95
2023-05-06T17:15:51.823Z,100401.09
2023-05-06T17:18:26.815Z,100400.66
2023-05-06T17:21:07.873Z,100407.56
2023-05-06T17:23:42.418Z,100416.88
2023-05-06T17:26:20.138Z,100423.09
2023-05-06T17:28:58.861Z,100425.39
2023-05-06T17:31:29.644Z,100427.13
2023-05-06T17:34:16.345Z,100424.98
2023-05-06T17:36:57.916Z,100427.65
2023-05-06T17:39:33.754Z,100427.36
2023-05-06T17:42:10.158Z,100432.91
2023-05-06T17:45:04.390Z,100440.72
2023-05-06T17:47:39.159Z,100442.48
2023-05-06T17:50:34.782Z,100442.91
2023-05-06T17:53:51.911Z,100444.67
2023-05-06T17:56:53.297Z,100449.85
2023-05-06T17:59:30.220Z,100453.86
2023-05-06T18:02:17.388Z,100462.03
2023-05-06T18:05:28.847Z,100466.41
2023-05-06T18:08:35.023Z,100470.95
2023-05-06T18:11:25.012Z,100475.81
2023-05-06T18:14:00.567Z,100478.48
2023-05-06T18:17:05.189Z,100479.59
2023-05-06T18:23:24.940Z,100483.80
2023-05-06T18:25:58.026Z,100485.75
2023-05-06T18:29:03.812Z,100486.02
2023-05-06T18:46:53.963Z,100477.58
2023-05-06T18:50:33.870Z,100473.02
2023-05-06T18:52:49.275Z,100476.55
2023-05-06T18:55:21.852Z,100473.40
2023-05-06T18:57:49.420Z,100471.08
2023-05-06T19:00:18.910Z,100473.56
2023-05-06T19:02:46.398Z,100471.81
2023-05-06T19:05:13.768Z,100469.90
2023-05-06T19:07:41.901Z,100467.12
2023-05-06T19:10:09.609Z,100466.73
2023-05-06T19:12:36.760Z,100466.70
2023-05-06T19:15:04.076Z,100469.92
2023-05-06T19:17:31.287Z,100470.05
2023-05-06T19:19:58.516Z,100468.45
2023-05-06T19:22:25.595Z,100466.17
2023-05-06T19:24:53.136Z,100468.71
2023-05-06T19:27:20.361Z,100466.96
2023-05-06T19:29:48.386Z,100467.61
2023-05-06T19:32:15.308Z,100467.40
2023-05-06T19:34:42.797Z,100469.27
2023-05-06T19:37:21.394Z,100469.56
2023-05-06T19:39:58.892Z,100467.24
2023-05-06T19:42:26.028Z,100467.70
2023-05-06T19:44:53.145Z,100466.09
2023-05-06T19:47:22.254Z,100463.98
2023-05-06T19:49:51.339Z,100461.52
2023-05-06T19:52:18.325Z,100462.84
2023-05-06T19:54:45.735Z,100460.08
2023-05-06T19:57:13.021Z,100460.35
2023-05-06T19:59:40.080Z,100458.55
2023-05-06T20:02:10.877Z,100462.77
2023-05-06T20:04:45.736Z,100462.21
2023-05-06T20:07:14.056Z,100465.52
2023-05-06T20:09:41.083Z,100469.08
2023-05-06T20:12:08.229Z,100466.10
2023-05-06T20:14:35.447Z,100466.41
2023-05-06T20:17:05.424Z,100466.04
2023-05-06T20:19:32.617Z,100465.13
2023-05-06T20:22:02.788Z,100470.85
2023-05-06T20:24:29.940Z,100469.74
2023-05-06T20:26:59.115Z,100464.65
2023-05-06T20:29:32.632Z,100462.48
2023-05-06T20:32:14.579Z,100463.61
2023-05-06T20:34:52.148Z,100465.05
2023-05-06T20:37:22.945Z,100462.17
2023-05-06T20:39:49.834Z,100460.20
2023-05-06T20:42:17.033Z,100459.92
2023-05-06T20:44:44.280Z,100461.58
2023-05-06T20:47:12.714Z,100462.48
2023-05-06T20:49:39.938Z,100458.23
2023-05-06T20:54:03.528Z,100457.61
2023-05-06T20:55:49.474Z,100460.96
2023-05-06T20:58:23.957Z,100462.19
2023-05-06T21:00:54.124Z,100460.70
2023-05-06T21:03:25.941Z,100464.33
2023-05-06T21:05:53.909Z,100463.05
2023-05-06T21:08:20.977Z,100464.85
2023-05-06T21:10:47.947Z,100462.06
2023-05-06T21:13:17.604Z,100461.98
2023-05-06T21:15:44.664Z,100461.39
2023-05-06T21:18:11.654Z,100458.05
2023-05-06T21:20:38.774Z,100462.07
2023-05-06T21:23:05.691Z,100462.35
2023-05-06T21:25:32.643Z,100463.09
2023-05-06T21:28:03.635Z,100463.88
2023-05-06T21:30:31.281Z,100464.78
2023-05-06T21:32:58.657Z,100466.56
2023-05-06T21:35:26.139Z,100466.66
2023-05-06T21:37:53.081Z,100465.46
2023-05-06T21:43:42.427Z,100470.70
2023-05-06T21:46:09.367Z,100472.32
2023-05-06T21:48:36.608Z,100466.41
2023-05-06T21:51:03.872Z,100467.43
2023-05-06T21:53:30.837Z,100466.17
2023-05-06T21:55:57.591Z,100465.08
2023-05-06T21:58:24.293Z,100469.68
2023-05-06T22:00:52.336Z,100464.98
2023-05-06T22:03:19.331Z,100464.02
2023-05-06T22:05:46.293Z,100460.70
2023-05-06T22:08:13.031Z,100462.52
2023-05-06T22:10:39.730Z,100460.77
2023-05-06T22:13:06.962Z,100464.81
2023-05-06T22:15:33.758Z,100463.36
2023-05-06T22:18:00.566Z,100462.64
2023-05-06T22:20:28.437Z,100461.20
2023-05-06T22:22:55.321Z,100463.03
2023-05-06T22:25:22.240Z,100462.63
2023-05-06T22:27:48.965Z,100469.39
2023-05-06T22:30:16.384Z,100466.45
2023-05-06T22:32:43.237Z,100463.33
2023-05-06T22:35:10.422Z,100461.92
2023-05-06T22:37:37.279Z,100465.52
2023-05-06T22:40:04.378Z,100462.58
2023-05-06T22:42:31.114Z,100461.13
2023-05-06T22:44:57.856Z,100457.60
2023-05-06T22:47:24.629Z,100458.91
2023-05-06T22:49:51.517Z,100460.73
2023-05-06T22:52:19.237Z,100458.30
2023-05-06T22:54:46.105Z,100455.38
2023-05-06T22:57:12.939Z,100458.80
2023-05-06T22:59:39.885Z,100457.41
2023-05-06T23:02:06.665Z,100463.05
2023-05-06T23:04:33.458Z,100455.67
2023-05-06T23:07:00.170Z,100457.87
2023-05-06T23:09:26.928Z,100453.92
2023-05-06T23:11:53.697Z,100452.02
2023-05-06T23:14:20.513Z,100453.52
2023-05-06T23:16:47.316Z,100451.27
2023-05-06T23:19:14.225Z,100448.34
2023-05-06T23:21:41.605Z,100448.34
2023-05-06T23:24:08.822Z,100444.42
2023-05-06T23:26:35.581Z,100453.29
2023-05-06T23:29:02.289Z,100449.67
2023-05-06T23:31:29.049Z,100455.27
2023-05-06T23:33:55.975Z,100455.05
2023-05-06T23:36:22.862Z,100453.92
2023-05-06T23:38:49.592Z,100455.08
2023-05-06T23:41:16.246Z,100451.71
2023-05-06T23:43:43.010Z,100451.16
2023-05-06T23:46:09.802Z,100447.91
2023-05-06T23:48:37.601Z,100449.41
2023-05-06T23:51:04.533Z,100444.55
2023-05-06T23:53:31.267Z,100441.02
2023-05-06T23:55:57.996Z,100440.60
2023-05-06T23:58:24.677Z,100442.07
